createdAt,value
2023-02-09T00:00:51.910Z,-2.37
2023-02-09T00:03:22.632Z,-2.40
2023-02-09T00:05:52.880Z,-2.26
2023-02-09T00:08:23.804Z,-2.18
2023-02-09T00:10:53.791Z,-2.09
2023-02-09T00:13:23.909Z,-2.04
2023-02-09T00:15:53.993Z,-2.02
2023-02-09T00:18:24.840Z,-1.98
2023-02-09T00:20:55.249Z,-1.95
2023-02-09T00:23:25.358Z,-1.92
2023-02-09T00:25:55.807Z,-1.89
2023-02-09T00:28:26.653Z,-1.84
2023-02-09T00:30:57.422Z,-1.79
2023-02-09T00:33:28.226Z,-1.76
2023-02-09T00:35:58.191Z,-1.73
2023-02-09T00:38:28.995Z,-1.79
2023-02-09T00:40:59.170Z,-1.93
2023-02-09T00:43:29.622Z,-1.93
2023-02-09T00:46:00.379Z,-1.98
2023-02-09T00:48:30.560Z,-1.95
2023-02-09T00:51:00.696Z,-2.02
2023-02-09T00:53:30.989Z,-2.02
2023-02-09T00:56:01.267Z,-2.05
2023-02-09T00:58:31.664Z,-2.07
2023-02-09T01:01:01.928Z,-2.13
2023-02-09T01:03:32.367Z,-1.98
2023-02-09T01:06:02.551Z,-2.10
2023-02-09T01:08:33.280Z,-2.12
2023-02-09T01:11:04.022Z,-2.11
2023-02-09T01:13:34.386Z,-2.14
2023-02-09T01:16:05.013Z,-2.10
2023-02-09T01:18:35.247Z,-2.19
2023-02-09T01:21:05.313Z,-2.17
2023-02-09T01:23:35.567Z,-2.26
2023-02-09T01:26:05.765Z,-2.21
2023-02-09T01:28:35.915Z,-2.09
2023-02-09T01:31:06.712Z,-2.10
2023-02-09T01:33:36.747Z,-1.99
2023-02-09T01:36:07.291Z,-2.01
2023-02-09T01:38:37.940Z,-1.91
2023-02-09T01:41:08.362Z,-1.82
2023-02-09T01:43:39.150Z,-1.81
2023-02-09T01:46:09.373Z,-1.73
2023-02-09T01:48:39.771Z,-1.62
2023-02-09T01:51:10.170Z,-1.64
2023-02-09T01:53:40.954Z,-1.68
2023-02-09T01:56:11.367Z,-1.64
2023-02-09T01:58:41.647Z,-1.61
2023-02-09T02:01:12.298Z,-1.69
2023-02-09T02:03:42.395Z,-1.81
2023-02-09T02:06:12.846Z,-1.66
2023-02-09T02:08:43.619Z,-1.77
2023-02-09T02:11:13.736Z,-1.73
2023-02-09T02:13:43.939Z,-1.72
2023-02-09T02:16:14.536Z,-1.77
2023-02-09T02:18:45.266Z,-1.73
2023-02-09T02:21:15.436Z,-1.73
2023-02-09T02:23:45.864Z,-1.63
2023-02-09T02:26:16.248Z,-1.58
2023-02-09T02:28:47.033Z,-1.44
2023-02-09T02:31:17.632Z,-1.39
2023-02-09T02:33:48.204Z,-1.50
2023-02-09T02:36:18.682Z,-1.56
2023-02-09T02:38:49.235Z,-1.46
2023-02-09T02:41:19.469Z,-1.48
2023-02-09T02:43:49.889Z,-1.51
2023-02-09T02:46:20.071Z,-1.50
2023-02-09T02:48:50.505Z,-1.47
2023-02-09T02:51:21.189Z,-1.50
2023-02-09T02:53:51.969Z,-1.62
2023-02-09T02:56:22.698Z,-1.54
2023-02-09T02:58:52.867Z,-1.54
2023-02-09T03:01:23.010Z,-1.59
2023-02-09T03:03:53.473Z,-1.64
2023-02-09T03:06:24.244Z,-1.68
2023-02-09T03:08:54.638Z,-1.67
2023-02-09T03:11:25.082Z,-1.63
2023-02-09T03:13:55.779Z,-1.69
2023-02-09T03:16:25.968Z,-1.68
2023-02-09T03:18:56.313Z,-1.72
2023-02-09T03:21:27.033Z,-1.75
2023-02-09T03:23:57.457Z,-1.75
2023-02-09T03:26:27.579Z,-1.73
2023-02-09T03:28:58.012Z,-1.68
2023-02-09T03:31:28.931Z,-1.74
2023-02-09T03:33:59.238Z,-1.77
2023-02-09T03:36:29.907Z,-1.74
2023-02-09T03:39:00.088Z,-1.78
2023-02-09T03:41:30.530Z,-1.67
2023-02-09T03:44:00.676Z,-1.78
2023-02-09T03:46:31.472Z,-1.71
2023-02-09T03:49:02.148Z,-1.66
2023-02-09T03:51:32.962Z,-1.69
2023-02-09T03:54:03.705Z,-1.65
2023-02-09T03:56:34.217Z,-1.74
2023-02-09T03:59:04.333Z,-1.81
2023-02-09T04:01:34.865Z,-1.75
2023-02-09T04:04:05.147Z,-1.70
2023-02-09T04:06:35.340Z,-1.77
2023-02-09T04:09:05.859Z,-1.83
2023-02-09T04:11:36.548Z,-1.77
2023-02-09T04:14:06.769Z,-1.92
2023-02-09T04:16:37.072Z,-1.95
2023-02-09T04:19:07.758Z,-1.95
2023-02-09T04:21:37.957Z,-1.86
2023-02-09T04:24:08.109Z,-1.71
2023-02-09T04:26:38.229Z,-1.82
2023-02-09T04:29:08.714Z,-1.81
2023-02-09T04:31:39.513Z,-1.93
2023-02-09T04:34:09.435Z,-2.06
2023-02-09T04:36:40.143Z,-1.99
2023-02-09T04:39:10.258Z,-1.96
2023-02-09T04:41:41.091Z,-2.05
2023-02-09T04:44:11.850Z,-1.99
2023-02-09T04:46:43.658Z,-2.12
2023-02-09T04:49:12.524Z,-2.05
2023-02-09T04:51:42.707Z,-2.14
2023-02-09T04:54:12.997Z,-2.02
2023-02-09T04:56:43.220Z,-1.87
2023-02-09T04:59:13.872Z,-1.80
2023-02-09T05:01:44.065Z,-1.75
2023-02-09T05:04:14.561Z,-1.84
2023-02-09T05:06:45.256Z,-1.88
2023-02-09T05:09:15.872Z,-1.87
2023-02-09T05:11:45.881Z,-1.77
2023-02-09T05:14:16.131Z,-1.70
2023-02-09T05:16:46.742Z,-1.56
2023-02-09T05:19:17.264Z,-1.69
2023-02-09T05:21:47.465Z,-1.61
2023-02-09T05:24:17.697Z,-1.70
2023-02-09T05:26:47.758Z,-1.62
2023-02-09T05:29:17.979Z,-1.62
2023-02-09T05:31:48.809Z,-1.74
2023-02-09T05:34:19.175Z,-1.78
2023-02-09T05:36:49.290Z,-1.91
2023-02-09T05:39:20.109Z,-1.82
2023-02-09T05:41:50.529Z,-1.79
2023-02-09T05:44:21.238Z,-1.85
2023-02-09T05:46:51.911Z,-1.87
2023-02-09T05:49:22.088Z,-1.91
2023-02-09T05:51:52.788Z,-1.95
2023-02-09T05:54:23.221Z,-1.87
2023-02-09T05:56:54.085Z,-1.90
2023-02-09T05:59:24.735Z,-1.90
2023-02-09T06:01:54.743Z,-1.97
2023-02-09T06:04:24.877Z,-2.00
2023-02-09T06:06:55.441Z,-2.01
2023-02-09T06:09:26.012Z,-2.08
2023-02-09T06:11:56.385Z,-2.19
2023-02-09T06:14:26.565Z,-2.19
2023-02-09T06:16:56.791Z,-2.11
2023-02-09T06:19:27.518Z,-2.17
2023-02-09T06:21:57.667Z,-2.19
2023-02-09T06:24:27.849Z,-2.19
2023-02-09T06:26:58.486Z,-2.14
2023-02-09T06:29:29.009Z,-2.14
2023-02-09T06:32:00.034Z,-2.23
2023-02-09T06:34:30.402Z,-2.19
2023-02-09T06:37:01.195Z,-2.23
2023-02-09T06:39:31.688Z,-2.23
2023-02-09T06:42:01.696Z,-2.23
2023-02-09T06:44:32.221Z,-2.21
2023-02-09T06:47:02.237Z,-2.21
2023-02-09T06:49:32.769Z,-2.26
2023-02-09T06:52:03.169Z,-2.26
2023-02-09T06:54:33.700Z,-2.25
2023-02-09T06:57:03.608Z,-2.17
2023-02-09T06:59:34.021Z,-2.17
2023-02-09T07:02:04.774Z,-2.13
2023-02-09T07:04:34.902Z,-2.15
2023-02-09T07:07:05.605Z,-2.11
2023-02-09T07:09:35.829Z,-2.05
2023-02-09T07:12:06.289Z,-2.09
2023-02-09T07:14:36.471Z,-2.08
2023-02-09T07:17:07.197Z,-2.08
2023-02-09T07:19:37.915Z,-2.23
2023-02-09T07:22:08.391Z,-2.18
2023-02-09T07:24:39.223Z,-2.13
2023-02-09T07:27:09.195Z,-2.05
2023-02-09T07:29:40.094Z,-2.07
2023-02-09T07:32:10.606Z,-2.11
2023-02-09T07:34:41.398Z,-2.12
2023-02-09T07:37:11.754Z,-2.19
2023-02-09T07:39:42.618Z,-2.11
2023-02-09T07:42:13.356Z,-2.06
2023-02-09T07:44:43.534Z,-2.02
2023-02-09T07:47:14.314Z,-2.06
2023-02-09T07:49:44.518Z,-2.02
2023-02-09T07:52:14.614Z,-1.99
2023-02-09T07:54:45.176Z,-1.99
2023-02-09T07:57:15.161Z,-1.92
2023-02-09T07:59:45.265Z,-1.82
2023-02-09T08:02:15.486Z,-1.81
2023-02-09T08:04:46.390Z,-1.77
2023-02-09T08:07:16.503Z,-1.74
2023-02-09T08:09:46.605Z,-1.73
2023-02-09T08:12:16.736Z,-1.66
2023-02-09T08:14:47.537Z,-1.62
2023-02-09T08:17:17.709Z,-1.58
2023-02-09T08:19:48.110Z,-1.65
2023-02-09T08:22:18.238Z,-1.51
2023-02-09T08:24:48.450Z,-1.41
2023-02-09T08:27:19.105Z,-1.34
2023-02-09T08:29:49.552Z,-1.27
2023-02-09T08:32:19.774Z,-1.18
2023-02-09T08:34:50.185Z,-1.10
2023-02-09T08:37:20.353Z,-1.07
2023-02-09T08:39:50.486Z,-1.02
2023-02-09T08:42:20.584Z,-0.98
2023-02-09T08:44:51.030Z,-1.00
2023-02-09T08:47:21.457Z,-0.97
2023-02-09T08:49:51.861Z,-0.86
2023-02-09T08:52:21.994Z,-0.87
2023-02-09T08:54:52.461Z,-0.90
2023-02-09T08:57:29.472Z,-0.96
2023-02-09T08:59:53.938Z,-0.81
2023-02-09T09:02:24.461Z,-0.78
2023-02-09T09:04:55.171Z,-0.68
2023-02-09T09:07:25.359Z,-0.56
2023-02-09T09:09:56.075Z,-0.54
2023-02-09T09:12:26.333Z,-0.52
2023-02-09T09:14:56.599Z,-0.47
2023-02-09T09:17:26.964Z,-0.37
2023-02-09T09:19:57.375Z,-0.31
2023-02-09T09:22:28.083Z,-0.21
2023-02-09T09:24:58.227Z,-0.13
2023-02-09T09:27:28.880Z,-0.11
2023-02-09T09:29:59.765Z,-0.11
2023-02-09T09:32:30.445Z,-0.00
2023-02-09T09:35:00.415Z,0.08
2023-02-09T09:37:30.850Z,0.16
2023-02-09T09:40:01.641Z,0.30
2023-02-09T09:42:31.680Z,0.42
2023-02-09T09:45:02.439Z,0.50
2023-02-09T09:47:33.113Z,0.41
2023-02-09T09:50:03.785Z,0.47
2023-02-09T09:52:34.474Z,0.54
2023-02-09T09:55:05.140Z,0.73
2023-02-09T09:57:35.771Z,0.78
2023-02-09T10:00:06.282Z,0.80
2023-02-09T10:02:37.062Z,0.85
2023-02-09T10:05:07.819Z,0.73
2023-02-09T10:07:38.164Z,0.80
2023-02-09T10:10:08.274Z,0.90
2023-02-09T10:12:38.980Z,0.95
2023-02-09T10:15:09.093Z,1.03
2023-02-09T10:17:39.616Z,1.05
2023-02-09T10:20:09.767Z,1.08
2023-02-09T10:22:40.386Z,1.19
2023-02-09T10:25:10.592Z,1.30
2023-02-09T10:27:40.705Z,1.32
2023-02-09T10:30:10.847Z,1.22
2023-02-09T10:32:41.322Z,1.12
2023-02-09T10:35:12.074Z,1.10
2023-02-09T10:37:42.401Z,1.00
2023-02-09T10:40:12.507Z,1.05
2023-02-09T10:42:43.110Z,0.97
2023-02-09T10:45:13.220Z,1.03
2023-02-09T10:47:43.555Z,1.02
2023-02-09T10:50:14.240Z,1.08
2023-02-09T10:52:44.784Z,1.23
2023-02-09T10:55:14.834Z,1.42
2023-02-09T10:57:45.414Z,1.61
2023-02-09T11:00:16.113Z,1.53
2023-02-09T11:02:46.508Z,1.78
2023-02-09T11:05:17.273Z,1.83
2023-02-09T11:07:48.095Z,1.91
2023-02-09T11:10:18.792Z,1.99
2023-02-09T11:12:49.004Z,2.06
2023-02-09T11:15:19.607Z,2.11
2023-02-09T11:17:50.435Z,2.20
2023-02-09T11:20:20.502Z,2.32
2023-02-09T11:22:50.519Z,2.42
2023-02-09T11:25:20.504Z,2.29
2023-02-09T11:27:51.403Z,2.29
2023-02-09T11:30:22.165Z,2.43
2023-02-09T11:32:52.212Z,2.58
2023-02-09T11:35:22.844Z,2.71
2023-02-09T11:37:53.645Z,2.84
2023-02-09T11:40:23.825Z,2.97
2023-02-09T11:42:54.581Z,3.14
2023-02-09T11:45:24.970Z,3.30
2023-02-09T11:47:55.223Z,3.38
2023-02-09T11:50:25.321Z,3.46
2023-02-09T11:52:56.029Z,3.53
2023-02-09T11:55:26.429Z,3.57
2023-02-09T11:57:56.856Z,3.59
2023-02-09T12:00:27.698Z,3.56
2023-02-09T12:02:57.724Z,3.53
2023-02-09T12:05:27.955Z,3.50
2023-02-09T12:07:58.743Z,3.46
2023-02-09T12:10:29.309Z,3.45
2023-02-09T12:13:00.053Z,3.43
2023-02-09T12:15:30.954Z,3.49
2023-02-09T12:18:00.897Z,3.50
2023-02-09T12:20:31.723Z,3.50
2023-02-09T12:23:02.258Z,3.55
2023-02-09T12:25:33.182Z,3.56
2023-02-09T12:28:03.192Z,3.56
2023-02-09T12:30:33.584Z,3.56
2023-02-09T12:33:03.894Z,3.61
2023-02-09T12:35:33.982Z,3.57
2023-02-09T12:38:04.478Z,3.63
2023-02-09T12:40:34.678Z,3.71
2023-02-09T12:43:05.181Z,3.75
2023-02-09T12:45:35.980Z,3.77
2023-02-09T12:48:05.853Z,3.83
2023-02-09T12:50:35.930Z,3.82
2023-02-09T12:53:06.135Z,3.84
2023-02-09T12:55:36.536Z,3.82
2023-02-09T12:58:06.614Z,3.82
2023-02-09T13:00:36.849Z,3.78
2023-02-09T13:03:08.090Z,3.77
2023-02-09T13:05:37.932Z,3.72
2023-02-09T13:08:08.234Z,3.66
2023-02-09T13:10:38.449Z,3.51
2023-02-09T13:13:09.080Z,3.46
2023-02-09T13:15:39.744Z,3.48
2023-02-09T13:18:10.260Z,3.47
2023-02-09T13:20:40.868Z,3.61
2023-02-09T13:23:11.529Z,3.72
2023-02-09T13:25:41.948Z,3.84
2023-02-09T13:28:12.508Z,3.87
2023-02-09T13:30:42.751Z,3.84
2023-02-09T13:33:13.148Z,3.87
2023-02-09T13:35:44.327Z,3.86
2023-02-09T13:38:14.201Z,3.71
2023-02-09T13:40:44.363Z,3.74
2023-02-09T13:43:14.695Z,3.75
2023-02-09T13:45:45.210Z,3.81
2023-02-09T13:48:14.994Z,3.77
2023-02-09T13:50:45.346Z,3.84
2023-02-09T13:53:15.681Z,3.78
2023-02-09T13:55:46.973Z,3.78
2023-02-09T13:58:17.038Z,3.75
2023-02-09T14:00:48.231Z,3.83
2023-02-09T14:03:17.924Z,3.87
2023-02-09T14:05:48.606Z,3.90
2023-02-09T14:08:18.601Z,3.95
2023-02-09T14:10:49.229Z,3.94
2023-02-09T14:13:19.680Z,3.98
2023-02-09T14:15:50.238Z,3.94
2023-02-09T14:18:20.877Z,3.89
2023-02-09T14:20:51.554Z,3.98
2023-02-09T14:23:21.942Z,3.91
2023-02-09T14:25:52.586Z,3.99
2023-02-09T14:28:22.750Z,3.97
2023-02-09T14:30:53.094Z,3.97
2023-02-09T14:33:23.769Z,3.98
2023-02-09T14:35:54.250Z,3.95
2023-02-09T14:38:25.048Z,3.85
2023-02-09T14:40:55.164Z,3.86
2023-02-09T14:43:25.237Z,3.86
2023-02-09T14:45:55.416Z,3.79
2023-02-09T14:48:26.000Z,3.74
2023-02-09T14:50:56.578Z,3.80
2023-02-09T14:53:27.030Z,3.87
2023-02-09T14:55:57.605Z,3.86
2023-02-09T14:58:27.836Z,3.87
2023-02-09T15:00:58.350Z,3.90
2023-02-09T15:03:28.441Z,3.87
2023-02-09T15:05:59.245Z,3.89
2023-02-09T15:08:29.928Z,3.74
2023-02-09T15:11:00.288Z,3.70
2023-02-09T15:13:30.805Z,3.52
2023-02-09T15:16:00.921Z,3.68
2023-02-09T15:18:31.678Z,3.74
2023-02-09T15:21:01.729Z,3.77
2023-02-09T15:23:32.258Z,3.81
2023-02-09T15:26:02.550Z,3.76
2023-02-09T15:28:33.433Z,3.75
2023-02-09T15:31:04.340Z,3.78
2023-02-09T15:33:34.606Z,3.77
2023-02-09T15:36:04.758Z,3.80
2023-02-09T15:38:35.200Z,3.79
2023-02-09T15:41:05.163Z,3.78
2023-02-09T15:43:35.156Z,3.79
2023-02-09T15:46:05.308Z,3.79
2023-02-09T15:48:35.362Z,3.75
2023-02-09T15:51:06.001Z,3.77
2023-02-09T15:53:36.581Z,3.63
2023-02-09T15:56:07.377Z,3.70
2023-02-09T15:58:38.130Z,3.72
2023-02-09T16:01:08.182Z,3.74
2023-02-09T16:03:38.946Z,3.67
2023-02-09T16:06:09.013Z,3.58
2023-02-09T16:08:39.694Z,3.67
2023-02-09T16:11:10.405Z,3.68
2023-02-09T16:13:40.405Z,3.68
2023-02-09T16:16:16.960Z,3.45
2023-02-09T16:18:41.548Z,3.54
2023-02-09T16:21:11.580Z,3.56
2023-02-09T16:23:42.262Z,3.53
2023-02-09T16:26:12.609Z,3.54
2023-02-09T16:28:43.264Z,3.59
2023-02-09T16:31:13.550Z,3.59
2023-02-09T16:33:44.380Z,3.63
2023-02-09T16:36:14.713Z,3.74
2023-02-09T16:38:44.717Z,3.59
2023-02-09T16:41:15.283Z,3.45
2023-02-09T16:43:45.876Z,3.28
2023-02-09T16:46:16.496Z,3.16
2023-02-09T16:48:46.727Z,3.05
2023-02-09T16:51:17.467Z,2.94
2023-02-09T16:53:47.943Z,2.84
2023-02-09T16:56:18.154Z,2.80
2023-02-09T16:58:48.168Z,2.78
2023-02-09T17:01:19.281Z,2.80
2023-02-09T17:03:49.227Z,2.87
2023-02-09T17:06:19.621Z,2.90
2023-02-09T17:08:49.798Z,2.99
2023-02-09T17:11:20.692Z,2.99
2023-02-09T17:13:51.103Z,3.00
2023-02-09T17:16:21.417Z,3.02
2023-02-09T17:18:51.525Z,3.02
2023-02-09T17:21:22.390Z,3.02
2023-02-09T17:23:52.816Z,3.03
2023-02-09T17:26:23.028Z,2.98
2023-02-09T17:28:53.350Z,2.99
2023-02-09T17:31:23.528Z,3.00
2023-02-09T17:33:53.598Z,3.01
2023-02-09T17:36:27.531Z,2.95
2023-02-09T17:38:54.060Z,2.97
2023-02-09T17:41:24.254Z,3.00
2023-02-09T17:43:54.757Z,3.00
2023-02-09T17:46:24.981Z,3.00
2023-02-09T17:48:55.068Z,3.00
2023-02-09T17:51:25.404Z,2.97
2023-02-09T17:53:55.976Z,3.00
2023-02-09T17:56:26.409Z,2.99
2023-02-09T17:58:56.584Z,2.97
2023-02-09T18:01:27.439Z,2.96
2023-02-09T18:03:57.049Z,2.97
2023-02-09T18:06:27.425Z,2.97
2023-02-09T18:08:57.625Z,2.99
2023-02-09T18:11:28.014Z,2.91
2023-02-09T18:13:58.302Z,2.95
2023-02-09T18:16:29.230Z,2.96
2023-02-09T18:18:59.688Z,2.92
2023-02-09T18:21:30.392Z,3.00
2023-02-09T18:24:01.048Z,3.02
2023-02-09T18:26:31.522Z,3.10
2023-02-09T18:29:01.407Z,3.11
2023-02-09T18:31:31.448Z,3.06
2023-02-09T18:34:01.810Z,3.07
2023-02-09T18:36:32.136Z,3.09
2023-02-09T18:39:02.327Z,3.09
2023-02-09T18:41:33.223Z,3.08
2023-02-09T18:44:03.400Z,3.02
2023-02-09T18:46:34.196Z,3.04
2023-02-09T18:49:04.802Z,3.02
2023-02-09T18:51:35.552Z,3.02
2023-02-09T18:54:05.751Z,3.01
2023-02-09T18:56:36.428Z,3.00
2023-02-09T18:59:06.352Z,3.01
2023-02-09T19:01:37.293Z,3.04
2023-02-09T19:04:08.038Z,3.11
2023-02-09T19:06:38.113Z,3.07
2023-02-09T19:09:08.429Z,3.09
2023-02-09T19:11:38.496Z,3.12
2023-02-09T19:14:08.541Z,3.13
2023-02-09T19:16:38.819Z,3.18
2023-02-09T19:19:08.995Z,3.18
2023-02-09T19:21:39.291Z,3.19
2023-02-09T19:24:09.327Z,3.17
2023-02-09T19:26:40.259Z,3.23
2023-02-09T19:29:10.441Z,3.26
2023-02-09T19:31:41.227Z,3.27
2023-02-09T19:34:11.581Z,3.30
2023-02-09T19:36:41.671Z,3.30
2023-02-09T19:39:12.150Z,3.31
2023-02-09T19:41:42.466Z,3.29
2023-02-09T19:44:12.570Z,3.30
2023-02-09T19:46:42.722Z,3.32
2023-02-09T19:49:13.068Z,3.25
2023-02-09T19:51:43.811Z,3.28
2023-02-09T19:54:14.205Z,3.32
2023-02-09T19:56:44.212Z,3.30
2023-02-09T19:59:15.037Z,3.32
2023-02-09T20:01:45.561Z,3.36
2023-02-09T20:04:15.363Z,3.38
2023-02-09T20:06:45.992Z,3.39
2023-02-09T20:09:16.080Z,3.42
2023-02-09T20:11:46.190Z,3.37
2023-02-09T20:14:16.291Z,3.35
2023-02-09T20:16:46.911Z,3.36
2023-02-09T20:19:17.402Z,3.40
2023-02-09T20:21:47.671Z,3.40
2023-02-09T20:24:17.679Z,3.41
2023-02-09T20:26:47.929Z,3.43
2023-02-09T20:29:18.551Z,3.48
2023-02-09T20:31:48.824Z,3.48
2023-02-09T20:34:18.935Z,3.51
2023-02-09T20:36:49.617Z,3.49
2023-02-09T20:39:20.003Z,3.50
2023-02-09T20:41:50.191Z,3.48
2023-02-09T20:44:20.576Z,3.47
2023-02-09T20:46:50.821Z,3.41
2023-02-09T20:49:21.239Z,3.41
2023-02-09T20:51:51.696Z,3.44
2023-02-09T20:54:22.239Z,3.46
2023-02-09T20:56:52.343Z,3.45
2023-02-09T20:59:22.647Z,3.51
2023-02-09T21:01:52.964Z,3.56
2023-02-09T21:04:23.692Z,3.52
2023-02-09T21:06:53.929Z,3.56
2023-02-09T21:09:24.165Z,3.61
2023-02-09T21:11:54.478Z,3.61
2023-02-09T21:14:32.306Z,3.62
2023-02-09T21:16:54.919Z,3.61
2023-02-09T21:19:25.611Z,3.60
2023-02-09T21:21:56.408Z,3.58
2023-02-09T21:24:27.085Z,3.59
2023-02-09T21:26:57.554Z,3.60
2023-02-09T21:29:27.553Z,3.61
2023-02-09T21:31:58.000Z,3.62
2023-02-09T21:34:27.876Z,3.62
2023-02-09T21:36:58.613Z,3.60
2023-02-09T21:39:28.760Z,3.57
2023-02-09T21:41:59.154Z,3.62
2023-02-09T21:44:29.380Z,3.65
2023-02-09T21:46:59.542Z,3.63
2023-02-09T21:49:30.358Z,3.60
2023-02-09T21:52:01.213Z,3.51
2023-02-09T21:54:32.001Z,3.53
2023-02-09T21:57:02.866Z,3.54
2023-02-09T21:59:32.868Z,3.56
2023-02-09T22:02:03.000Z,3.55
2023-02-09T22:04:33.416Z,3.52
2023-02-09T22:07:04.149Z,3.53
2023-02-09T22:09:34.774Z,3.57
2023-02-09T22:12:05.627Z,3.55
2023-02-09T22:14:36.379Z,3.61
2023-02-09T22:17:06.561Z,3.59
2023-02-09T22:19:37.175Z,3.62
2023-02-09T22:22:08.046Z,3.68
2023-02-09T22:24:38.863Z,3.69
2023-02-09T22:27:09.354Z,3.64
2023-02-09T22:29:39.538Z,3.65
2023-02-09T22:32:10.131Z,3.69
2023-02-09T22:34:40.520Z,3.67
2023-02-09T22:37:10.784Z,3.74
2023-02-09T22:39:41.033Z,3.83
2023-02-09T22:42:11.179Z,3.70
2023-02-09T22:44:41.730Z,3.64
2023-02-09T22:47:12.619Z,3.52
2023-02-09T22:49:42.996Z,3.45
2023-02-09T22:52:13.207Z,3.33
2023-02-09T22:54:43.295Z,3.14
2023-02-09T22:57:13.377Z,3.17
2023-02-09T22:59:44.199Z,3.10
2023-02-09T23:02:14.247Z,2.93
2023-02-09T23:04:45.001Z,3.02
2023-02-09T23:07:15.429Z,3.02
2023-02-09T23:09:45.745Z,3.10
2023-02-09T23:12:16.374Z,3.12
2023-02-09T23:14:46.841Z,3.14
2023-02-09T23:17:16.949Z,3.17
2023-02-09T23:19:47.161Z,3.21
2023-02-09T23:22:17.606Z,3.23
2023-02-09T23:24:47.511Z,3.22
2023-02-09T23:27:17.546Z,3.15
2023-02-09T23:29:48.318Z,3.15
2023-02-09T23:32:19.062Z,3.20
2023-02-09T23:34:49.760Z,3.17
2023-02-09T23:37:36.754Z,3.13
2023-02-09T23:39:50.827Z,3.06
2023-02-09T23:42:21.228Z,3.10
2023-02-09T23:44:51.255Z,3.05
2023-02-09T23:47:21.739Z,3.04
2023-02-09T23:49:52.390Z,3.00
2023-02-09T23:52:23.231Z,2.99
2023-02-09T23:54:53.784Z,2.91
2023-02-09T23:57:24.403Z,2.85
2023-02-09T23:59:54.667Z,2.89
